sensor_id;sensor_type;location;lat;lon;timestamp;P1;durP1;ratioP1;P2;durP2;ratioP2
15699;SDS011;7950;42.744;23.174;2023-04-03T00:01:45;1.77;;;1.60;;
15699;SDS011;7950;42.744;23.174;2023-04-03T00:04:14;2.40;;;1.70;;
15699;SDS011;7950;42.744;23.174;2023-04-03T00:06:42;2.53;;;1.87;;
15699;SDS011;7950;42.744;23.174;2023-04-03T00:12:06;2.93;;;1.70;;
15699;SDS011;7950;42.744;23.174;2023-04-03T00:14:34;2.30;;;2.00;;
15699;SDS011;7950;42.744;23.174;2023-04-03T00:17:03;3.10;;;2.10;;
15699;SDS011;7950;42.744;23.174;2023-04-03T00:19:31;2.13;;;1.60;;
15699;SDS011;7950;42.744;23.174;2023-04-03T00:22:00;2.03;;;1.70;;
15699;SDS011;7950;42.744;23.174;2023-04-03T00:24:29;2.30;;;1.50;;
15699;SDS011;7950;42.744;23.174;2023-04-03T00:26:58;2.00;;;1.70;;
15699;SDS011;7950;42.744;23.174;2023-04-03T00:29:27;1.70;;;1.50;;
15699;SDS011;7950;42.744;23.174;2023-04-03T00:31:55;2.37;;;1.50;;
15699;SDS011;7950;42.744;23.174;2023-04-03T00:34:24;1.70;;;1.60;;
15699;SDS011;7950;42.744;23.174;2023-04-03T00:36:52;4.03;;;1.80;;
15699;SDS011;7950;42.744;23.174;2023-04-03T00:39:21;2.50;;;2.30;;
15699;SDS011;7950;42.744;23.174;2023-04-03T00:41:49;3.00;;;2.10;;
15699;SDS011;7950;42.744;23.174;2023-04-03T00:44:21;2.90;;;2.00;;
15699;SDS011;7950;42.744;23.174;2023-04-03T00:50:28;2.17;;;1.90;;
15699;SDS011;7950;42.744;23.174;2023-04-03T00:52:57;1.77;;;1.67;;
15699;SDS011;7950;42.744;23.174;2023-04-03T00:55:26;1.50;;;1.40;;
15699;SDS011;7950;42.744;23.174;2023-04-03T00:57:56;3.00;;;1.80;;
15699;SDS011;7950;42.744;23.174;2023-04-03T01:00:29;1.83;;;1.57;;
15699;SDS011;7950;42.744;23.174;2023-04-03T01:02:57;1.60;;;1.50;;
15699;SDS011;7950;42.744;23.174;2023-04-03T01:05:27;1.83;;;1.60;;
15699;SDS011;7950;42.744;23.174;2023-04-03T01:07:55;1.33;;;1.23;;
15699;SDS011;7950;42.744;23.174;2023-04-03T01:10:26;1.40;;;1.30;;
15699;SDS011;7950;42.744;23.174;2023-04-03T01:12:54;1.90;;;1.80;;
15699;SDS011;7950;42.744;23.174;2023-04-03T01:15:24;1.60;;;1.47;;
15699;SDS011;7950;42.744;23.174;2023-04-03T01:17:58;1.67;;;1.50;;
15699;SDS011;7950;42.744;23.174;2023-04-03T01:24:00;1.40;;;1.30;;
15699;SDS011;7950;42.744;23.174;2023-04-03T01:26:49;1.47;;;1.37;;
15699;SDS011;7950;42.744;23.174;2023-04-03T01:29:17;1.43;;;1.33;;
15699;SDS011;7950;42.744;23.174;2023-04-03T01:31:50;2.33;;;2.00;;
15699;SDS011;7950;42.744;23.174;2023-04-03T01:34:27;2.37;;;2.00;;
15699;SDS011;7950;42.744;23.174;2023-04-03T01:36:57;1.80;;;1.70;;
15699;SDS011;7950;42.744;23.174;2023-04-03T01:39:25;2.77;;;1.77;;
15699;SDS011;7950;42.744;23.174;2023-04-03T01:41:54;2.90;;;2.10;;
15699;SDS011;7950;42.744;23.174;2023-04-03T01:44:22;4.83;;;3.10;;
15699;SDS011;7950;42.744;23.174;2023-04-03T01:46:52;3.93;;;3.40;;
15699;SDS011;7950;42.744;23.174;2023-04-03T01:49:21;3.13;;;2.83;;
15699;SDS011;7950;42.744;23.174;2023-04-03T01:51:49;4.33;;;3.43;;
15699;SDS011;7950;42.744;23.174;2023-04-03T01:54:18;4.17;;;3.30;;
15699;SDS011;7950;42.744;23.174;2023-04-03T01:56:46;4.13;;;3.03;;
15699;SDS011;7950;42.744;23.174;2023-04-03T01:59:14;3.80;;;3.40;;
15699;SDS011;7950;42.744;23.174;2023-04-03T02:01:44;3.33;;;2.60;;
15699;SDS011;7950;42.744;23.174;2023-04-03T02:04:14;2.57;;;2.37;;
15699;SDS011;7950;42.744;23.174;2023-04-03T02:06:43;2.43;;;2.23;;
15699;SDS011;7950;42.744;23.174;2023-04-03T02:09:11;2.17;;;1.97;;
15699;SDS011;7950;42.744;23.174;2023-04-03T02:11:40;3.00;;;2.20;;
15699;SDS011;7950;42.744;23.174;2023-04-03T02:14:09;2.30;;;1.80;;
15699;SDS011;7950;42.744;23.174;2023-04-03T02:16:37;2.13;;;1.87;;
15699;SDS011;7950;42.744;23.174;2023-04-03T02:19:06;2.13;;;1.60;;
15699;SDS011;7950;42.744;23.174;2023-04-03T02:21:36;2.80;;;1.90;;
15699;SDS011;7950;42.744;23.174;2023-04-03T02:24:05;8.17;;;5.40;;
15699;SDS011;7950;42.744;23.174;2023-04-03T02:26:34;9.33;;;5.23;;
15699;SDS011;7950;42.744;23.174;2023-04-03T02:29:02;4.87;;;3.47;;
15699;SDS011;7950;42.744;23.174;2023-04-03T02:31:31;2.40;;;2.20;;
15699;SDS011;7950;42.744;23.174;2023-04-03T02:33:59;4.90;;;1.80;;
15699;SDS011;7950;42.744;23.174;2023-04-03T02:36:28;2.13;;;1.93;;
15699;SDS011;7950;42.744;23.174;2023-04-03T02:38:59;2.90;;;2.07;;
15699;SDS011;7950;42.744;23.174;2023-04-03T02:41:28;2.17;;;1.97;;
15699;SDS011;7950;42.744;23.174;2023-04-03T02:44:01;3.60;;;2.20;;
15699;SDS011;7950;42.744;23.174;2023-04-03T02:46:32;2.83;;;2.10;;
15699;SDS011;7950;42.744;23.174;2023-04-03T02:49:01;3.20;;;2.17;;
15699;SDS011;7950;42.744;23.174;2023-04-03T02:51:30;2.10;;;1.90;;
15699;SDS011;7950;42.744;23.174;2023-04-03T02:56:55;2.37;;;2.07;;
15699;SDS011;7950;42.744;23.174;2023-04-03T02:59:23;1.90;;;1.80;;
15699;SDS011;7950;42.744;23.174;2023-04-03T03:01:52;1.90;;;1.80;;
15699;SDS011;7950;42.744;23.174;2023-04-03T03:04:22;3.43;;;1.73;;
15699;SDS011;7950;42.744;23.174;2023-04-03T03:06:50;1.70;;;1.57;;
15699;SDS011;7950;42.744;23.174;2023-04-03T03:09:21;2.03;;;1.90;;
15699;SDS011;7950;42.744;23.174;2023-04-03T03:11:51;1.93;;;1.73;;
15699;SDS011;7950;42.744;23.174;2023-04-03T03:14:19;2.00;;;1.80;;
15699;SDS011;7950;42.744;23.174;2023-04-03T03:16:48;2.00;;;1.70;;
15699;SDS011;7950;42.744;23.174;2023-04-03T03:22:06;5.23;;;3.57;;
15699;SDS011;7950;42.744;23.174;2023-04-03T03:24:35;8.77;;;4.20;;
15699;SDS011;7950;42.744;23.174;2023-04-03T03:27:05;4.37;;;3.43;;
15699;SDS011;7950;42.744;23.174;2023-04-03T03:29:34;3.37;;;2.57;;
15699;SDS011;7950;42.744;23.174;2023-04-03T03:32:02;3.07;;;2.37;;
15699;SDS011;7950;42.744;23.174;2023-04-03T03:34:32;2.63;;;1.93;;
15699;SDS011;7950;42.744;23.174;2023-04-03T03:37:01;2.80;;;2.40;;
15699;SDS011;7950;42.744;23.174;2023-04-03T03:39:29;2.20;;;2.00;;
15699;SDS011;7950;42.744;23.174;2023-04-03T03:41:58;2.10;;;1.90;;
15699;SDS011;7950;42.744;23.174;2023-04-03T03:44:27;2.07;;;1.83;;
15699;SDS011;7950;42.744;23.174;2023-04-03T03:46:56;2.43;;;2.10;;
15699;SDS011;7950;42.744;23.174;2023-04-03T03:49:25;1.97;;;1.73;;
15699;SDS011;7950;42.744;23.174;2023-04-03T03:51:53;2.30;;;2.03;;
15699;SDS011;7950;42.744;23.174;2023-04-03T03:54:22;2.47;;;1.90;;
15699;SDS011;7950;42.744;23.174;2023-04-03T03:56:50;2.07;;;1.80;;
15699;SDS011;7950;42.744;23.174;2023-04-03T03:59:18;2.53;;;1.93;;
15699;SDS011;7950;42.744;23.174;2023-04-03T04:01:48;5.70;;;2.10;;
15699;SDS011;7950;42.744;23.174;2023-04-03T04:04:17;2.97;;;2.10;;
15699;SDS011;7950;42.744;23.174;2023-04-03T04:06:46;2.40;;;2.17;;
15699;SDS011;7950;42.744;23.174;2023-04-03T04:12:08;22.37;;;16.63;;
15699;SDS011;7950;42.744;23.174;2023-04-03T04:14:36;6.53;;;5.40;;
15699;SDS011;7950;42.744;23.174;2023-04-03T04:17:06;29.43;;;16.17;;
15699;SDS011;7950;42.744;23.174;2023-04-03T04:19:34;9.40;;;5.97;;
15699;SDS011;7950;42.744;23.174;2023-04-03T04:22:03;5.60;;;3.83;;
15699;SDS011;7950;42.744;23.174;2023-04-03T04:24:32;3.53;;;3.23;;
15699;SDS011;7950;42.744;23.174;2023-04-03T04:27:03;3.60;;;2.70;;
15699;SDS011;7950;42.744;23.174;2023-04-03T04:29:32;3.00;;;2.77;;
15699;SDS011;7950;42.744;23.174;2023-04-03T04:32:02;2.80;;;2.50;;
15699;SDS011;7950;42.744;23.174;2023-04-03T04:34:33;3.77;;;2.37;;
15699;SDS011;7950;42.744;23.174;2023-04-03T04:37:01;3.53;;;2.60;;
15699;SDS011;7950;42.744;23.174;2023-04-03T04:39:30;2.93;;;2.70;;
15699;SDS011;7950;42.744;23.174;2023-04-03T04:41:59;3.80;;;2.87;;
15699;SDS011;7950;42.744;23.174;2023-04-03T04:44:27;2.33;;;2.13;;
15699;SDS011;7950;42.744;23.174;2023-04-03T04:46:56;2.30;;;2.10;;
15699;SDS011;7950;42.744;23.174;2023-04-03T04:49:24;2.40;;;2.20;;
15699;SDS011;7950;42.744;23.174;2023-04-03T04:51:54;2.90;;;2.60;;
15699;SDS011;7950;42.744;23.174;2023-04-03T04:54:22;2.70;;;2.50;;
15699;SDS011;7950;42.744;23.174;2023-04-03T04:56:51;3.57;;;2.60;;
15699;SDS011;7950;42.744;23.174;2023-04-03T04:59:20;2.40;;;2.20;;
15699;SDS011;7950;42.744;23.174;2023-04-03T05:01:48;2.60;;;2.40;;
15699;SDS011;7950;42.744;23.174;2023-04-03T05:04:17;3.50;;;2.80;;
15699;SDS011;7950;42.744;23.174;2023-04-03T05:06:45;3.63;;;3.20;;
15699;SDS011;7950;42.744;23.174;2023-04-03T05:09:15;3.00;;;2.63;;
15699;SDS011;7950;42.744;23.174;2023-04-03T05:11:46;3.30;;;2.80;;
15699;SDS011;7950;42.744;23.174;2023-04-03T05:14:14;8.97;;;5.87;;
15699;SDS011;7950;42.744;23.174;2023-04-03T05:16:43;6.50;;;5.20;;
15699;SDS011;7950;42.744;23.174;2023-04-03T05:19:12;6.93;;;5.50;;
15699;SDS011;7950;42.744;23.174;2023-04-03T05:21:41;3.93;;;3.47;;
15699;SDS011;7950;42.744;23.174;2023-04-03T05:24:09;3.30;;;3.00;;
15699;SDS011;7950;42.744;23.174;2023-04-03T05:26:39;3.27;;;2.97;;
15699;SDS011;7950;42.744;23.174;2023-04-03T05:29:08;2.83;;;2.63;;
15699;SDS011;7950;42.744;23.174;2023-04-03T05:31:51;2.83;;;2.50;;
15699;SDS011;7950;42.744;23.174;2023-04-03T05:34:20;3.90;;;3.10;;
15699;SDS011;7950;42.744;23.174;2023-04-03T05:36:49;3.50;;;3.20;;
15699;SDS011;7950;42.744;23.174;2023-04-03T05:39:18;3.60;;;3.30;;
15699;SDS011;7950;42.744;23.174;2023-04-03T05:41:48;5.03;;;4.50;;
15699;SDS011;7950;42.744;23.174;2023-04-03T05:44:16;4.20;;;3.63;;
15699;SDS011;7950;42.744;23.174;2023-04-03T05:46:44;5.03;;;4.17;;
15699;SDS011;7950;42.744;23.174;2023-04-03T05:49:13;4.70;;;3.83;;
15699;SDS011;7950;42.744;23.174;2023-04-03T05:51:42;4.03;;;3.63;;
15699;SDS011;7950;42.744;23.174;2023-04-03T05:54:12;4.37;;;3.97;;
15699;SDS011;7950;42.744;23.174;2023-04-03T05:56:47;5.40;;;4.30;;
15699;SDS011;7950;42.744;23.174;2023-04-03T06:02:10;4.10;;;3.70;;
15699;SDS011;7950;42.744;23.174;2023-04-03T06:04:42;4.87;;;3.87;;
15699;SDS011;7950;42.744;23.174;2023-04-03T06:07:11;4.97;;;4.30;;
15699;SDS011;7950;42.744;23.174;2023-04-03T06:09:43;5.27;;;4.77;;
15699;SDS011;7950;42.744;23.174;2023-04-03T06:12:13;6.97;;;4.37;;
15699;SDS011;7950;42.744;23.174;2023-04-03T06:14:42;4.63;;;3.93;;
15699;SDS011;7950;42.744;23.174;2023-04-03T06:17:11;5.33;;;3.97;;
15699;SDS011;7950;42.744;23.174;2023-04-03T06:19:39;4.80;;;4.30;;
15699;SDS011;7950;42.744;23.174;2023-04-03T06:22:08;5.30;;;4.27;;
15699;SDS011;7950;42.744;23.174;2023-04-03T06:24:38;5.27;;;3.70;;
15699;SDS011;7950;42.744;23.174;2023-04-03T06:27:06;4.93;;;3.60;;
15699;SDS011;7950;42.744;23.174;2023-04-03T06:29:38;5.57;;;4.07;;
15699;SDS011;7950;42.744;23.174;2023-04-03T06:32:07;8.50;;;5.73;;
15699;SDS011;7950;42.744;23.174;2023-04-03T06:34:35;5.73;;;4.73;;
15699;SDS011;7950;42.744;23.174;2023-04-03T06:37:04;5.03;;;4.50;;
15699;SDS011;7950;42.744;23.174;2023-04-03T06:39:33;6.53;;;4.90;;
15699;SDS011;7950;42.744;23.174;2023-04-03T06:42:02;7.90;;;4.83;;
15699;SDS011;7950;42.744;23.174;2023-04-03T06:47:26;6.13;;;4.27;;
15699;SDS011;7950;42.744;23.174;2023-04-03T06:49:55;5.07;;;3.57;;
15699;SDS011;7950;42.744;23.174;2023-04-03T06:52:24;4.50;;;3.70;;
15699;SDS011;7950;42.744;23.174;2023-04-03T06:54:52;4.67;;;3.47;;
15699;SDS011;7950;42.744;23.174;2023-04-03T06:57:23;4.43;;;3.50;;
15699;SDS011;7950;42.744;23.174;2023-04-03T06:59:52;7.20;;;4.17;;
15699;SDS011;7950;42.744;23.174;2023-04-03T07:02:23;4.37;;;3.70;;
15699;SDS011;7950;42.744;23.174;2023-04-03T07:04:51;4.20;;;3.67;;
15699;SDS011;7950;42.744;23.174;2023-04-03T07:07:20;6.67;;;4.70;;
15699;SDS011;7950;42.744;23.174;2023-04-03T07:09:49;4.93;;;4.00;;
15699;SDS011;7950;42.744;23.174;2023-04-03T07:12:17;5.90;;;3.93;;
15699;SDS011;7950;42.744;23.174;2023-04-03T07:14:52;7.70;;;4.60;;
15699;SDS011;7950;42.744;23.174;2023-04-03T07:17:20;8.27;;;5.57;;
15699;SDS011;7950;42.744;23.174;2023-04-03T07:19:50;9.70;;;4.80;;
15699;SDS011;7950;42.744;23.174;2023-04-03T07:22:19;7.87;;;5.43;;
15699;SDS011;7950;42.744;23.174;2023-04-03T07:24:47;5.97;;;4.70;;
15699;SDS011;7950;42.744;23.174;2023-04-03T07:27:16;8.63;;;7.63;;
15699;SDS011;7950;42.744;23.174;2023-04-03T07:29:45;5.37;;;4.87;;
15699;SDS011;7950;42.744;23.174;2023-04-03T07:32:19;5.80;;;4.50;;
15699;SDS011;7950;42.744;23.174;2023-04-03T07:34:48;4.63;;;4.17;;
15699;SDS011;7950;42.744;23.174;2023-04-03T07:37:17;5.97;;;4.40;;
15699;SDS011;7950;42.744;23.174;2023-04-03T07:39:46;10.00;;;5.93;;
15699;SDS011;7950;42.744;23.174;2023-04-03T07:42:23;7.47;;;4.90;;
15699;SDS011;7950;42.744;23.174;2023-04-03T07:44:54;7.80;;;4.27;;
15699;SDS011;7950;42.744;23.174;2023-04-03T07:47:22;6.60;;;3.53;;
15699;SDS011;7950;42.744;23.174;2023-04-03T07:49:56;5.20;;;3.70;;
15699;SDS011;7950;42.744;23.174;2023-04-03T07:52:25;4.43;;;3.93;;
15699;SDS011;7950;42.744;23.174;2023-04-03T07:54:53;4.80;;;4.37;;
15699;SDS011;7950;42.744;23.174;2023-04-03T07:57:22;4.20;;;3.67;;
15699;SDS011;7950;42.744;23.174;2023-04-03T08:05:21;3.70;;;3.30;;
15699;SDS011;7950;42.744;23.174;2023-04-03T08:10:48;7.60;;;4.77;;
15699;SDS011;7950;42.744;23.174;2023-04-03T08:13:18;6.40;;;4.40;;
15699;SDS011;7950;42.744;23.174;2023-04-03T08:15:47;11.63;;;5.30;;
15699;SDS011;7950;42.744;23.174;2023-04-03T08:18:16;5.37;;;4.40;;
15699;SDS011;7950;42.744;23.174;2023-04-03T08:20:49;6.87;;;4.00;;
15699;SDS011;7950;42.744;23.174;2023-04-03T08:23:17;6.37;;;4.17;;
15699;SDS011;7950;42.744;23.174;2023-04-03T08:25:46;4.83;;;3.90;;
15699;SDS011;7950;42.744;23.174;2023-04-03T08:28:19;4.67;;;4.03;;
15699;SDS011;7950;42.744;23.174;2023-04-03T08:30:48;6.77;;;4.60;;
15699;SDS011;7950;42.744;23.174;2023-04-03T08:33:17;6.23;;;4.10;;
15699;SDS011;7950;42.744;23.174;2023-04-03T08:35:45;6.60;;;4.00;;
15699;SDS011;7950;42.744;23.174;2023-04-03T08:38:15;5.57;;;3.80;;
15699;SDS011;7950;42.744;23.174;2023-04-03T08:40:44;4.10;;;3.53;;
15699;SDS011;7950;42.744;23.174;2023-04-03T08:43:20;7.27;;;4.00;;
15699;SDS011;7950;42.744;23.174;2023-04-03T08:46:05;5.20;;;4.10;;
15699;SDS011;7950;42.744;23.174;2023-04-03T08:48:39;4.53;;;4.00;;
15699;SDS011;7950;42.744;23.174;2023-04-03T08:51:11;6.13;;;4.23;;
15699;SDS011;7950;42.744;23.174;2023-04-03T08:53:46;5.40;;;4.57;;
15699;SDS011;7950;42.744;23.174;2023-04-03T08:56:24;6.17;;;4.30;;
15699;SDS011;7950;42.744;23.174;2023-04-03T08:58:55;7.33;;;4.43;;
15699;SDS011;7950;42.744;23.174;2023-04-03T09:01:27;6.47;;;4.20;;
15699;SDS011;7950;42.744;23.174;2023-04-03T09:04:02;8.53;;;5.00;;
15699;SDS011;7950;42.744;23.174;2023-04-03T09:06:40;8.70;;;4.37;;
15699;SDS011;7950;42.744;23.174;2023-04-03T09:09:21;9.10;;;5.17;;
15699;SDS011;7950;42.744;23.174;2023-04-03T09:12:01;6.93;;;5.10;;
15699;SDS011;7950;42.744;23.174;2023-04-03T09:14:43;6.03;;;4.13;;
15699;SDS011;7950;42.744;23.174;2023-04-03T09:17:24;4.97;;;4.47;;
15699;SDS011;7950;42.744;23.174;2023-04-03T09:20:13;10.20;;;7.93;;
15699;SDS011;7950;42.744;23.174;2023-04-03T09:22:53;12.10;;;7.23;;
15699;SDS011;7950;42.744;23.174;2023-04-03T09:25:24;7.57;;;4.93;;
15699;SDS011;7950;42.744;23.174;2023-04-03T09:27:59;8.37;;;4.93;;
15699;SDS011;7950;42.744;23.174;2023-04-03T09:30:29;6.87;;;6.03;;
15699;SDS011;7950;42.744;23.174;2023-04-03T09:32:58;6.23;;;5.10;;
15699;SDS011;7950;42.744;23.174;2023-04-03T09:35:27;11.33;;;5.67;;
15699;SDS011;7950;42.744;23.174;2023-04-03T09:38:20;13.50;;;5.27;;
15699;SDS011;7950;42.744;23.174;2023-04-03T09:41:02;5.67;;;4.93;;
15699;SDS011;7950;42.744;23.174;2023-04-03T09:43:34;9.73;;;5.17;;
15699;SDS011;7950;42.744;23.174;2023-04-03T09:46:23;7.00;;;4.77;;
15699;SDS011;7950;42.744;23.174;2023-04-03T09:48:58;5.90;;;5.30;;
15699;SDS011;7950;42.744;23.174;2023-04-03T09:51:35;8.70;;;5.50;;
15699;SDS011;7950;42.744;23.174;2023-04-03T09:57:10;6.93;;;5.83;;
15699;SDS011;7950;42.744;23.174;2023-04-03T09:59:46;11.50;;;6.60;;
15699;SDS011;7950;42.744;23.174;2023-04-03T10:02:31;4.97;;;3.90;;
15699;SDS011;7950;42.744;23.174;2023-04-03T10:05:05;6.23;;;4.57;;
15699;SDS011;7950;42.744;23.174;2023-04-03T10:08:15;4.83;;;4.17;;
15699;SDS011;7950;42.744;23.174;2023-04-03T10:11:08;8.00;;;5.60;;
15699;SDS011;7950;42.744;23.174;2023-04-03T10:13:50;6.47;;;4.20;;
15699;SDS011;7950;42.744;23.174;2023-04-03T10:16:24;5.20;;;4.43;;
15699;SDS011;7950;42.744;23.174;2023-04-03T10:19:06;9.50;;;7.27;;
15699;SDS011;7950;42.744;23.174;2023-04-03T10:22:01;9.90;;;5.50;;
15699;SDS011;7950;42.744;23.174;2023-04-03T10:24:49;7.00;;;5.50;;
15699;SDS011;7950;42.744;23.174;2023-04-03T10:27:32;6.87;;;5.63;;
15699;SDS011;7950;42.744;23.174;2023-04-03T10:30:20;6.00;;;5.37;;
15699;SDS011;7950;42.744;23.174;2023-04-03T10:36:04;8.67;;;6.13;;
15699;SDS011;7950;42.744;23.174;2023-04-03T10:38:43;7.30;;;6.47;;
15699;SDS011;7950;42.744;23.174;2023-04-03T10:41:23;5.33;;;4.83;;
15699;SDS011;7950;42.744;23.174;2023-04-03T10:44:07;6.63;;;4.53;;
15699;SDS011;7950;42.744;23.174;2023-04-03T10:46:49;5.40;;;4.10;;
15699;SDS011;7950;42.744;23.174;2023-04-03T10:49:25;9.03;;;5.67;;
15699;SDS011;7950;42.744;23.174;2023-04-03T10:52:23;9.00;;;5.60;;
15699;SDS011;7950;42.744;23.174;2023-04-03T10:55:08;17.73;;;9.57;;
15699;SDS011;7950;42.744;23.174;2023-04-03T10:57:53;9.57;;;5.10;;
15699;SDS011;7950;42.744;23.174;2023-04-03T11:00:26;9.57;;;5.70;;
15699;SDS011;7950;42.744;23.174;2023-04-03T11:03:07;8.90;;;4.93;;
15699;SDS011;7950;42.744;23.174;2023-04-03T11:05:42;8.23;;;4.90;;
15699;SDS011;7950;42.744;23.174;2023-04-03T11:08:18;7.67;;;4.93;;
15699;SDS011;7950;42.744;23.174;2023-04-03T11:10:55;4.80;;;4.30;;
15699;SDS011;7950;42.744;23.174;2023-04-03T11:13:30;10.50;;;6.30;;
15699;SDS011;7950;42.744;23.174;2023-04-03T11:16:06;8.40;;;4.90;;
15699;SDS011;7950;42.744;23.174;2023-04-03T11:18:39;4.93;;;3.67;;
15699;SDS011;7950;42.744;23.174;2023-04-03T11:21:16;3.73;;;3.40;;
15699;SDS011;7950;42.744;23.174;2023-04-03T11:23:49;7.47;;;4.07;;
15699;SDS011;7950;42.744;23.174;2023-04-03T11:26:25;4.43;;;3.27;;
15699;SDS011;7950;42.744;23.174;2023-04-03T11:29:04;5.37;;;3.50;;
15699;SDS011;7950;42.744;23.174;2023-04-03T11:32:01;8.80;;;4.00;;
15699;SDS011;7950;42.744;23.174;2023-04-03T11:34:46;6.13;;;5.10;;
15699;SDS011;7950;42.744;23.174;2023-04-03T11:37:27;9.00;;;6.07;;
15699;SDS011;7950;42.744;23.174;2023-04-03T11:40:03;13.17;;;7.30;;
15699;SDS011;7950;42.744;23.174;2023-04-03T11:42:41;9.80;;;7.20;;
15699;SDS011;7950;42.744;23.174;2023-04-03T11:45:30;7.53;;;5.60;;
15699;SDS011;7950;42.744;23.174;2023-04-03T11:51:40;10.67;;;8.00;;
15699;SDS011;7950;42.744;23.174;2023-04-03T12:09:57;5.43;;;3.33;;
15699;SDS011;7950;42.744;23.174;2023-04-03T12:12:34;6.07;;;4.93;;
15699;SDS011;7950;42.744;23.174;2023-04-03T12:24:37;6.47;;;5.20;;
15699;SDS011;7950;42.744;23.174;2023-04-03T12:30:19;9.60;;;7.40;;
15699;SDS011;7950;42.744;23.174;2023-04-03T12:33:12;9.53;;;7.17;;
15699;SDS011;7950;42.744;23.174;2023-04-03T12:35:57;8.43;;;6.33;;
15699;SDS011;7950;42.744;23.174;2023-04-03T12:38:45;8.93;;;7.23;;
15699;SDS011;7950;42.744;23.174;2023-04-03T12:41:36;11.20;;;7.73;;
15699;SDS011;7950;42.744;23.174;2023-04-03T12:44:27;8.57;;;6.87;;
15699;SDS011;7950;42.744;23.174;2023-04-03T12:47:18;9.13;;;6.73;;
15699;SDS011;7950;42.744;23.174;2023-04-03T12:49:56;8.60;;;6.73;;
15699;SDS011;7950;42.744;23.174;2023-04-03T12:52:30;8.50;;;6.70;;
15699;SDS011;7950;42.744;23.174;2023-04-03T12:55:12;7.60;;;5.97;;
15699;SDS011;7950;42.744;23.174;2023-04-03T12:57:48;6.50;;;4.83;;
15699;SDS011;7950;42.744;23.174;2023-04-03T13:00:21;7.43;;;5.00;;
15699;SDS011;7950;42.744;23.174;2023-04-03T13:02:59;5.57;;;4.43;;
15699;SDS011;7950;42.744;23.174;2023-04-03T13:05:31;5.20;;;4.70;;
15699;SDS011;7950;42.744;23.174;2023-04-03T13:08:03;7.17;;;5.20;;
15699;SDS011;7950;42.744;23.174;2023-04-03T13:10:44;5.80;;;4.50;;
15699;SDS011;7950;42.744;23.174;2023-04-03T13:13:22;5.70;;;4.93;;
15699;SDS011;7950;42.744;23.174;2023-04-03T13:15:52;5.80;;;5.03;;
15699;SDS011;7950;42.744;23.174;2023-04-03T13:18:27;6.00;;;5.00;;
15699;SDS011;7950;42.744;23.174;2023-04-03T13:21:00;5.37;;;4.87;;
15699;SDS011;7950;42.744;23.174;2023-04-03T13:23:34;5.90;;;5.30;;
15699;SDS011;7950;42.744;23.174;2023-04-03T13:26:09;6.30;;;5.70;;
15699;SDS011;7950;42.744;23.174;2023-04-03T13:28:39;6.73;;;6.07;;
15699;SDS011;7950;42.744;23.174;2023-04-03T13:31:08;9.10;;;6.60;;
15699;SDS011;7950;42.744;23.174;2023-04-03T13:33:54;7.83;;;6.27;;
15699;SDS011;7950;42.744;23.174;2023-04-03T13:36:27;9.23;;;6.97;;
15699;SDS011;7950;42.744;23.174;2023-04-03T13:39:04;10.33;;;8.27;;
15699;SDS011;7950;42.744;23.174;2023-04-03T13:41:49;11.60;;;10.03;;
15699;SDS011;7950;42.744;23.174;2023-04-03T13:47:17;7.20;;;6.50;;
15699;SDS011;7950;42.744;23.174;2023-04-03T13:49:59;7.47;;;6.20;;
15699;SDS011;7950;42.744;23.174;2023-04-03T13:52:33;7.07;;;6.07;;
15699;SDS011;7950;42.744;23.174;2023-04-03T13:55:15;8.50;;;7.20;;
15699;SDS011;7950;42.744;23.174;2023-04-03T13:57:55;8.50;;;7.53;;
15699;SDS011;7950;42.744;23.174;2023-04-03T14:00:28;8.10;;;6.83;;
15699;SDS011;7950;42.744;23.174;2023-04-03T14:03:11;10.73;;;7.00;;
15699;SDS011;7950;42.744;23.174;2023-04-03T14:05:49;12.77;;;7.27;;
15699;SDS011;7950;42.744;23.174;2023-04-03T14:08:18;9.27;;;7.13;;
15699;SDS011;7950;42.744;23.174;2023-04-03T14:11:01;18.67;;;13.17;;
15699;SDS011;7950;42.744;23.174;2023-04-03T14:13:31;10.77;;;7.43;;
15699;SDS011;7950;42.744;23.174;2023-04-03T14:16:00;9.60;;;7.53;;
15699;SDS011;7950;42.744;23.174;2023-04-03T14:18:41;7.47;;;6.43;;
15699;SDS011;7950;42.744;23.174;2023-04-03T14:21:11;8.70;;;7.47;;
15699;SDS011;7950;42.744;23.174;2023-04-03T14:23:41;9.27;;;7.73;;
15699;SDS011;7950;42.744;23.174;2023-04-03T14:26:11;11.13;;;9.10;;
15699;SDS011;7950;42.744;23.174;2023-04-03T14:28:44;7.73;;;6.93;;
15699;SDS011;7950;42.744;23.174;2023-04-03T14:31:15;8.83;;;7.47;;
15699;SDS011;7950;42.744;23.174;2023-04-03T14:33:45;8.70;;;7.80;;
15699;SDS011;7950;42.744;23.174;2023-04-03T14:36:15;7.73;;;6.97;;
15699;SDS011;7950;42.744;23.174;2023-04-03T14:38:48;11.33;;;7.30;;
15699;SDS011;7950;42.744;23.174;2023-04-03T14:41:19;8.17;;;6.13;;
15699;SDS011;7950;42.744;23.174;2023-04-03T14:43:52;7.27;;;6.57;;
15699;SDS011;7950;42.744;23.174;2023-04-03T14:46:22;7.33;;;6.47;;
15699;SDS011;7950;42.744;23.174;2023-04-03T14:49:14;7.13;;;6.43;;
15699;SDS011;7950;42.744;23.174;2023-04-03T14:51:47;9.03;;;6.53;;
15699;SDS011;7950;42.744;23.174;2023-04-03T14:54:17;8.33;;;6.00;;
15699;SDS011;7950;42.744;23.174;2023-04-03T14:56:52;6.27;;;5.63;;
15699;SDS011;7950;42.744;23.174;2023-04-03T14:59:24;6.20;;;5.60;;
15699;SDS011;7950;42.744;23.174;2023-04-03T15:01:54;9.17;;;5.87;;
15699;SDS011;7950;42.744;23.174;2023-04-03T15:04:22;6.10;;;5.50;;
15699;SDS011;7950;42.744;23.174;2023-04-03T15:06:52;6.23;;;5.30;;
15699;SDS011;7950;42.744;23.174;2023-04-03T15:09:21;6.53;;;5.93;;
15699;SDS011;7950;42.744;23.174;2023-04-03T15:11:52;7.00;;;6.30;;
15699;SDS011;7950;42.744;23.174;2023-04-03T15:14:23;7.13;;;6.27;;
15699;SDS011;7950;42.744;23.174;2023-04-03T15:17:09;7.30;;;6.40;;
15699;SDS011;7950;42.744;23.174;2023-04-03T15:19:45;6.57;;;5.50;;
15699;SDS011;7950;42.744;23.174;2023-04-03T15:22:14;6.40;;;5.60;;
15699;SDS011;7950;42.744;23.174;2023-04-03T15:24:45;8.30;;;5.43;;
15699;SDS011;7950;42.744;23.174;2023-04-03T15:27:13;7.60;;;6.20;;
15699;SDS011;7950;42.744;23.174;2023-04-03T15:29:44;7.47;;;6.00;;
15699;SDS011;7950;42.744;23.174;2023-04-03T15:32:13;6.97;;;5.40;;
15699;SDS011;7950;42.744;23.174;2023-04-03T15:34:42;6.23;;;5.63;;
15699;SDS011;7950;42.744;23.174;2023-04-03T15:37:10;8.13;;;6.07;;
15699;SDS011;7950;42.744;23.174;2023-04-03T15:39:39;7.40;;;5.80;;
15699;SDS011;7950;42.744;23.174;2023-04-03T15:42:08;8.83;;;6.77;;
15699;SDS011;7950;42.744;23.174;2023-04-03T15:44:38;7.73;;;6.33;;
15699;SDS011;7950;42.744;23.174;2023-04-03T15:47:08;8.17;;;7.33;;
15699;SDS011;7950;42.744;23.174;2023-04-03T15:52:56;11.30;;;9.40;;
15699;SDS011;7950;42.744;23.174;2023-04-03T15:55:25;8.90;;;7.80;;
15699;SDS011;7950;42.744;23.174;2023-04-03T15:57:56;10.73;;;9.63;;
15699;SDS011;7950;42.744;23.174;2023-04-03T16:00:25;9.37;;;8.00;;
15699;SDS011;7950;42.744;23.174;2023-04-03T16:02:57;9.73;;;7.50;;
15699;SDS011;7950;42.744;23.174;2023-04-03T16:05:31;7.43;;;6.40;;
15699;SDS011;7950;42.744;23.174;2023-04-03T16:08:02;8.37;;;7.47;;
15699;SDS011;7950;42.744;23.174;2023-04-03T16:10:35;9.40;;;7.87;;
15699;SDS011;7950;42.744;23.174;2023-04-03T16:13:06;7.43;;;6.13;;
15699;SDS011;7950;42.744;23.174;2023-04-03T16:15:42;8.40;;;6.90;;
15699;SDS011;7950;42.744;23.174;2023-04-03T16:18:13;9.23;;;7.43;;
15699;SDS011;7950;42.744;23.174;2023-04-03T16:20:41;7.07;;;6.30;;
15699;SDS011;7950;42.744;23.174;2023-04-03T16:23:11;8.77;;;6.37;;
15699;SDS011;7950;42.744;23.174;2023-04-03T16:25:40;6.60;;;5.33;;
15699;SDS011;7950;42.744;23.174;2023-04-03T16:28:12;6.03;;;5.13;;
15699;SDS011;7950;42.744;23.174;2023-04-03T16:30:42;5.47;;;4.83;;
15699;SDS011;7950;42.744;23.174;2023-04-03T16:33:13;3.20;;;2.87;;
15699;SDS011;7950;42.744;23.174;2023-04-03T16:35:42;2.83;;;2.60;;